sensor_id;sensor_type;location;lat;lon;timestamp;pressure;altitude;pressure_sealevel;temperature;humidity
17209;BME280;8720;48.488;9.202;2023-06-14T00:00:45;96514.44;;;20.59;28.27
17209;BME280;8720;48.488;9.202;2023-06-14T00:03:15;96523.59;;;20.55;28.42
17209;BME280;8720;48.488;9.202;2023-06-14T00:05:44;96515.06;;;20.50;28.97
17209;BME280;8720;48.488;9.202;2023-06-14T00:08:13;96518.09;;;20.46;29.04
17209;BME280;8720;48.488;9.202;2023-06-14T00:10:41;96517.53;;;20.41;29.27
17209;BME280;8720;48.488;9.202;2023-06-14T00:13:09;96524.13;;;20.35;29.30
17209;BME280;8720;48.488;9.202;2023-06-14T00:15:36;96524.44;;;20.31;29.27
17209;BME280;8720;48.488;9.202;2023-06-14T00:18:04;96531.91;;;20.26;29.70
17209;BME280;8720;48.488;9.202;2023-06-14T00:20:33;96523.59;;;20.18;29.60
17209;BME280;8720;48.488;9.202;2023-06-14T00:23:01;96525.91;;;20.10;29.89
17209;BME280;8720;48.488;9.202;2023-06-14T00:25:28;96526.34;;;20.04;30.04
17209;BME280;8720;48.488;9.202;2023-06-14T00:27:57;96515.63;;;19.92;30.34
17209;BME280;8720;48.488;9.202;2023-06-14T00:30:24;96522.66;;;19.93;30.61
17209;BME280;8720;48.488;9.202;2023-06-14T00:32:56;96526.47;;;19.89;30.43
17209;BME280;8720;48.488;9.202;2023-06-14T00:35:25;96527.81;;;19.82;30.81
17209;BME280;8720;48.488;9.202;2023-06-14T00:37:54;96525.69;;;19.75;31.12
17209;BME280;8720;48.488;9.202;2023-06-14T00:40:21;96517.50;;;19.65;31.45
17209;BME280;8720;48.488;9.202;2023-06-14T00:42:49;96518.75;;;19.60;31.57
17209;BME280;8720;48.488;9.202;2023-06-14T00:45:16;96520.03;;;19.54;31.52
17209;BME280;8720;48.488;9.202;2023-06-14T00:47:46;96514.19;;;19.49;31.60
17209;BME280;8720;48.488;9.202;2023-06-14T00:50:13;96519.91;;;19.43;31.56
17209;BME280;8720;48.488;9.202;2023-06-14T00:52:41;96520.31;;;19.37;31.89
17209;BME280;8720;48.488;9.202;2023-06-14T00:55:10;96522.41;;;19.32;32.19
17209;BME280;8720;48.488;9.202;2023-06-14T00:57:38;96518.31;;;19.27;32.48
17209;BME280;8720;48.488;9.202;2023-06-14T01:00:07;96514.28;;;19.21;32.59
17209;BME280;8720;48.488;9.202;2023-06-14T01:02:36;96513.75;;;19.16;32.36
17209;BME280;8720;48.488;9.202;2023-06-14T01:05:04;96514.03;;;19.12;32.72
17209;BME280;8720;48.488;9.202;2023-06-14T01:07:46;96516.25;;;19.05;32.70
17209;BME280;8720;48.488;9.202;2023-06-14T01:10:33;96518.44;;;18.98;32.82
17209;BME280;8720;48.488;9.202;2023-06-14T01:13:10;96521.38;;;18.94;32.94
17209;BME280;8720;48.488;9.202;2023-06-14T01:15:41;96511.94;;;18.90;32.92
17209;BME280;8720;48.488;9.202;2023-06-14T01:18:10;96525.50;;;18.85;33.06
17209;BME280;8720;48.488;9.202;2023-06-14T01:20:44;96525.03;;;18.79;32.67
17209;BME280;8720;48.488;9.202;2023-06-14T01:23:17;96524.50;;;18.74;32.50
17209;BME280;8720;48.488;9.202;2023-06-14T01:25:44;96520.13;;;18.73;32.73
17209;BME280;8720;48.488;9.202;2023-06-14T01:28:15;96520.34;;;18.70;32.91
17209;BME280;8720;48.488;9.202;2023-06-14T01:30:47;96520.50;;;18.67;33.19
17209;BME280;8720;48.488;9.202;2023-06-14T01:33:19;96514.56;;;18.63;33.24
17209;BME280;8720;48.488;9.202;2023-06-14T01:35:50;96517.41;;;18.60;33.34
17209;BME280;8720;48.488;9.202;2023-06-14T01:38:22;96521.09;;;18.58;33.48
17209;BME280;8720;48.488;9.202;2023-06-14T01:40:51;96519.59;;;18.54;33.74
17209;BME280;8720;48.488;9.202;2023-06-14T01:43:20;96522.44;;;18.51;33.74
17209;BME280;8720;48.488;9.202;2023-06-14T01:45:49;96519.03;;;18.49;33.88
17209;BME280;8720;48.488;9.202;2023-06-14T01:48:19;96522.84;;;18.45;34.04
17209;BME280;8720;48.488;9.202;2023-06-14T01:50:48;96520.44;;;18.40;34.14
17209;BME280;8720;48.488;9.202;2023-06-14T01:53:16;96521.47;;;18.38;34.63
17209;BME280;8720;48.488;9.202;2023-06-14T01:55:45;96521.78;;;18.33;34.46
17209;BME280;8720;48.488;9.202;2023-06-14T01:58:14;96514.00;;;18.30;34.54
17209;BME280;8720;48.488;9.202;2023-06-14T02:05:59;96515.91;;;18.14;35.07
17209;BME280;8720;48.488;9.202;2023-06-14T02:08:26;96512.69;;;18.09;34.97
17209;BME280;8720;48.488;9.202;2023-06-14T02:10:55;96524.34;;;18.06;35.18
17209;BME280;8720;48.488;9.202;2023-06-14T02:13:22;96521.09;;;18.01;35.26
17209;BME280;8720;48.488;9.202;2023-06-14T02:15:50;96523.19;;;17.96;35.67
17209;BME280;8720;48.488;9.202;2023-06-14T02:18:22;96532.25;;;17.92;35.49
17209;BME280;8720;48.488;9.202;2023-06-14T02:20:50;96531.59;;;17.89;35.47
17209;BME280;8720;48.488;9.202;2023-06-14T02:23:17;96530.94;;;17.85;35.59
17209;BME280;8720;48.488;9.202;2023-06-14T02:25:44;96527.69;;;17.80;35.46
17209;BME280;8720;48.488;9.202;2023-06-14T02:28:13;96522.69;;;17.76;35.71
17209;BME280;8720;48.488;9.202;2023-06-14T02:30:40;96527.28;;;17.72;35.49
17209;BME280;8720;48.488;9.202;2023-06-14T02:33:08;96527.50;;;17.69;35.73
17209;BME280;8720;48.488;9.202;2023-06-14T02:35:40;96530.34;;;17.66;35.57
17209;BME280;8720;48.488;9.202;2023-06-14T02:38:07;96527.84;;;17.63;35.50
17209;BME280;8720;48.488;9.202;2023-06-14T02:40:34;96531.53;;;17.61;35.38
17209;BME280;8720;48.488;9.202;2023-06-14T02:43:01;96522.06;;;17.57;35.69
17209;BME280;8720;48.488;9.202;2023-06-14T02:45:30;96519.63;;;17.54;36.10
17209;BME280;8720;48.488;9.202;2023-06-14T02:47:57;96520.75;;;17.50;36.03
17209;BME280;8720;48.488;9.202;2023-06-14T02:50:25;96528.06;;;17.45;36.19
17209;BME280;8720;48.488;9.202;2023-06-14T02:52:54;96528.31;;;17.40;36.17
17209;BME280;8720;48.488;9.202;2023-06-14T02:55:23;96532.09;;;17.36;36.58
17209;BME280;8720;48.488;9.202;2023-06-14T02:57:50;96526.41;;;17.28;36.29
17209;BME280;8720;48.488;9.202;2023-06-14T03:00:20;96526.59;;;17.25;36.26
17209;BME280;8720;48.488;9.202;2023-06-14T03:02:49;96526.69;;;17.23;36.56
17209;BME280;8720;48.488;9.202;2023-06-14T03:05:17;96528.56;;;17.21;36.60
17209;BME280;8720;48.488;9.202;2023-06-14T03:07:48;96515.03;;;17.12;36.67
17209;BME280;8720;48.488;9.202;2023-06-14T03:10:16;96533.19;;;17.18;36.71
17209;BME280;8720;48.488;9.202;2023-06-14T03:12:45;96543.81;;;17.16;36.92
17209;BME280;8720;48.488;9.202;2023-06-14T03:15:14;96530.88;;;17.12;37.22
17209;BME280;8720;48.488;9.202;2023-06-14T03:17:46;96540.69;;;17.10;37.26
17209;BME280;8720;48.488;9.202;2023-06-14T03:20:17;96544.34;;;17.07;37.35
17209;BME280;8720;48.488;9.202;2023-06-14T03:22:46;96550.66;;;17.05;37.37
17209;BME280;8720;48.488;9.202;2023-06-14T03:25:15;96548.09;;;17.03;37.39
17209;BME280;8720;48.488;9.202;2023-06-14T03:27:44;96554.41;;;17.01;37.44
17209;BME280;8720;48.488;9.202;2023-06-14T03:30:12;96552.81;;;16.98;37.47
17209;BME280;8720;48.488;9.202;2023-06-14T03:32:41;96551.19;;;16.96;37.67
17209;BME280;8720;48.488;9.202;2023-06-14T03:35:08;96557.44;;;16.95;37.80
17209;BME280;8720;48.488;9.202;2023-06-14T03:37:44;96547.09;;;16.90;37.67
17209;BME280;8720;48.488;9.202;2023-06-14T03:40:14;96550.59;;;16.91;37.85
17209;BME280;8720;48.488;9.202;2023-06-14T03:42:44;96555.81;;;16.92;37.70
17209;BME280;8720;48.488;9.202;2023-06-14T03:45:13;96553.25;;;16.91;37.93
17209;BME280;8720;48.488;9.202;2023-06-14T03:47:40;96554.06;;;16.91;38.12
17209;BME280;8720;48.488;9.202;2023-06-14T03:50:09;96559.31;;;16.93;38.16
17209;BME280;8720;48.488;9.202;2023-06-14T03:52:37;96555.03;;;16.90;38.37
17209;BME280;8720;48.488;9.202;2023-06-14T03:55:07;96563.81;;;16.91;38.37
17209;BME280;8720;48.488;9.202;2023-06-14T03:57:34;96566.03;;;16.98;38.34
17209;BME280;8720;48.488;9.202;2023-06-14T04:00:06;96567.63;;;17.01;38.59
17209;BME280;8720;48.488;9.202;2023-06-14T04:02:40;96573.63;;;17.04;38.76
17209;BME280;8720;48.488;9.202;2023-06-14T04:05:10;96577.75;;;17.08;38.74
17209;BME280;8720;48.488;9.202;2023-06-14T04:07:42;96576.94;;;17.08;38.90
17209;BME280;8720;48.488;9.202;2023-06-14T04:10:13;96584.22;;;17.18;38.70
17209;BME280;8720;48.488;9.202;2023-06-14T04:12:40;96587.41;;;17.25;38.81
17209;BME280;8720;48.488;9.202;2023-06-14T04:15:09;96575.88;;;17.26;38.83
17209;BME280;8720;48.488;9.202;2023-06-14T04:17:38;96590.16;;;17.38;38.70
17209;BME280;8720;48.488;9.202;2023-06-14T04:20:10;96592.38;;;17.45;38.57
17209;BME280;8720;48.488;9.202;2023-06-14T04:22:37;96604.34;;;17.52;38.35
17209;BME280;8720;48.488;9.202;2023-06-14T04:25:07;96599.72;;;17.56;38.35
17209;BME280;8720;48.488;9.202;2023-06-14T04:27:35;96602.78;;;17.64;38.19
17209;BME280;8720;48.488;9.202;2023-06-14T04:30:07;96604.03;;;17.72;38.13
17209;BME280;8720;48.488;9.202;2023-06-14T04:32:38;96609.56;;;17.83;38.13
17209;BME280;8720;48.488;9.202;2023-06-14T04:35:07;96595.13;;;18.03;37.94
17209;BME280;8720;48.488;9.202;2023-06-14T04:37:37;96611.19;;;18.72;37.29
17209;BME280;8720;48.488;9.202;2023-06-14T04:40:10;96604.34;;;19.63;36.97
17209;BME280;8720;48.488;9.202;2023-06-14T04:42:39;96610.53;;;20.66;36.27
17209;BME280;8720;48.488;9.202;2023-06-14T04:45:11;96608.63;;;21.77;35.09
17209;BME280;8720;48.488;9.202;2023-06-14T04:47:40;96611.84;;;22.84;34.38
17209;BME280;8720;48.488;9.202;2023-06-14T04:50:09;96609.47;;;23.89;33.46
17209;BME280;8720;48.488;9.202;2023-06-14T04:52:39;96614.78;;;24.82;32.20
17209;BME280;8720;48.488;9.202;2023-06-14T04:55:08;96612.56;;;25.67;31.05
17209;BME280;8720;48.488;9.202;2023-06-14T04:57:36;96619.09;;;26.41;30.37
17209;BME280;8720;48.488;9.202;2023-06-14T05:00:08;96619.75;;;27.18;29.45
17209;BME280;8720;48.488;9.202;2023-06-14T05:02:37;96620.75;;;27.98;28.51
17209;BME280;8720;48.488;9.202;2023-06-14T05:05:07;96622.78;;;28.75;27.75
17209;BME280;8720;48.488;9.202;2023-06-14T05:07:35;96626.75;;;29.47;27.25
17209;BME280;8720;48.488;9.202;2023-06-14T05:10:03;96618.34;;;30.08;25.85
17209;BME280;8720;48.488;9.202;2023-06-14T05:12:31;96623.13;;;30.63;25.35
17209;BME280;8720;48.488;9.202;2023-06-14T05:15:00;96619.06;;;31.07;25.07
17209;BME280;8720;48.488;9.202;2023-06-14T05:17:29;96618.81;;;31.41;24.29
17209;BME280;8720;48.488;9.202;2023-06-14T05:19:56;96610.81;;;31.86;24.10
17209;BME280;8720;48.488;9.202;2023-06-14T05:22:24;96615.50;;;32.22;23.64
17209;BME280;8720;48.488;9.202;2023-06-14T05:24:51;96614.84;;;32.51;23.43
17209;BME280;8720;48.488;9.202;2023-06-14T05:27:18;96622.41;;;32.93;22.61
17209;BME280;8720;48.488;9.202;2023-06-14T05:29:46;96630.34;;;33.32;22.22
17209;BME280;8720;48.488;9.202;2023-06-14T05:32:13;96624.25;;;33.73;21.49
17209;BME280;8720;48.488;9.202;2023-06-14T05:34:43;96619.91;;;34.08;21.08
17209;BME280;8720;48.488;9.202;2023-06-14T05:37:10;96623.16;;;34.39;20.67
17209;BME280;8720;48.488;9.202;2023-06-14T05:39:39;96621.38;;;34.67;20.68
17209;BME280;8720;48.488;9.202;2023-06-14T05:42:07;96627.31;;;34.99;20.39
17209;BME280;8720;48.488;9.202;2023-06-14T05:44:34;96632.56;;;35.28;19.99
17209;BME280;8720;48.488;9.202;2023-06-14T05:47:02;96640.53;;;35.57;19.75
17209;BME280;8720;48.488;9.202;2023-06-14T05:49:29;96638.38;;;35.87;19.56
17209;BME280;8720;48.488;9.202;2023-06-14T05:51:58;96630.53;;;36.18;18.68
17209;BME280;8720;48.488;9.202;2023-06-14T05:54:25;96636.03;;;36.37;18.65
17209;BME280;8720;48.488;9.202;2023-06-14T05:56:53;96630.69;;;36.64;18.00
17209;BME280;8720;48.488;9.202;2023-06-14T05:59:20;96639.91;;;36.82;18.05
17209;BME280;8720;48.488;9.202;2023-06-14T06:01:48;96642.69;;;37.08;18.01
17209;BME280;8720;48.488;9.202;2023-06-14T06:04:15;96641.22;;;37.39;17.29
17209;BME280;8720;48.488;9.202;2023-06-14T06:06:42;96637.34;;;37.72;17.00
17209;BME280;8720;48.488;9.202;2023-06-14T06:09:11;96644.66;;;37.98;16.58
17209;BME280;8720;48.488;9.202;2023-06-14T06:11:40;96642.03;;;38.22;16.61
17209;BME280;8720;48.488;9.202;2023-06-14T06:14:07;96639.41;;;38.47;15.96
17209;BME280;8720;48.488;9.202;2023-06-14T06:16:34;96647.28;;;38.68;15.98
17209;BME280;8720;48.488;9.202;2023-06-14T06:19:02;96645.41;;;38.93;15.93
17209;BME280;8720;48.488;9.202;2023-06-14T06:21:29;96649.06;;;39.12;15.41
17209;BME280;8720;48.488;9.202;2023-06-14T06:23:57;96651.88;;;39.30;15.43
17209;BME280;8720;48.488;9.202;2023-06-14T06:26:26;96646.63;;;39.53;15.16
17209;BME280;8720;48.488;9.202;2023-06-14T06:28:53;96652.47;;;39.75;14.92
17209;BME280;8720;48.488;9.202;2023-06-14T06:31:21;96642.16;;;39.95;14.99
17209;BME280;8720;48.488;9.202;2023-06-14T06:33:49;96641.44;;;40.18;14.56
17209;BME280;8720;48.488;9.202;2023-06-14T06:36:16;96646.91;;;40.36;14.50
17209;BME280;8720;48.488;9.202;2023-06-14T06:38:44;96643.78;;;40.50;14.12
17209;BME280;8720;48.488;9.202;2023-06-14T06:41:11;96651.22;;;40.73;14.15
17209;BME280;8720;48.488;9.202;2023-06-14T06:43:40;96652.66;;;40.94;13.98
17209;BME280;8720;48.488;9.202;2023-06-14T06:46:09;96651.50;;;41.13;13.67
17209;BME280;8720;48.488;9.202;2023-06-14T06:48:36;96659.88;;;41.29;13.66
17209;BME280;8720;48.488;9.202;2023-06-14T06:51:03;96655.13;;;41.36;13.21
17209;BME280;8720;48.488;9.202;2023-06-14T06:53:31;96660.97;;;41.28;13.29
17209;BME280;8720;48.488;9.202;2023-06-14T06:55:58;96652.75;;;41.28;12.91
17209;BME280;8720;48.488;9.202;2023-06-14T06:58:26;96668.28;;;41.34;13.15
17209;BME280;8720;48.488;9.202;2023-06-14T07:00:54;96664.09;;;41.32;12.91
17209;BME280;8720;48.488;9.202;2023-06-14T07:03:22;96659.19;;;41.34;12.73
17209;BME280;8720;48.488;9.202;2023-06-14T07:05:49;96663.38;;;41.36;12.99
17209;BME280;8720;48.488;9.202;2023-06-14T07:08:16;96665.19;;;41.31;12.91
17209;BME280;8720;48.488;9.202;2023-06-14T07:10:43;96671.06;;;41.16;12.67
17209;BME280;8720;48.488;9.202;2023-06-14T07:13:11;96666.06;;;41.02;12.94
17209;BME280;8720;48.488;9.202;2023-06-14T07:15:38;96670.34;;;40.98;13.29
17209;BME280;8720;48.488;9.202;2023-06-14T07:18:07;96659.72;;;41.01;12.86
17209;BME280;8720;48.488;9.202;2023-06-14T07:20:34;96667.94;;;41.01;12.77
17209;BME280;8720;48.488;9.202;2023-06-14T07:23:04;96676.28;;;40.95;12.95
17209;BME280;8720;48.488;9.202;2023-06-14T07:25:32;96677.00;;;40.90;12.73
17209;BME280;8720;48.488;9.202;2023-06-14T07:27:59;96677.94;;;40.84;13.03
17209;BME280;8720;48.488;9.202;2023-06-14T07:30:26;96674.81;;;40.81;12.95
17209;BME280;8720;48.488;9.202;2023-06-14T07:32:55;96682.69;;;40.89;13.34
17209;BME280;8720;48.488;9.202;2023-06-14T07:35:24;96685.00;;;40.92;12.93
17209;BME280;8720;48.488;9.202;2023-06-14T07:37:52;96673.97;;;40.80;13.09
17209;BME280;8720;48.488;9.202;2023-06-14T07:40:20;96687.75;;;40.92;12.96
17209;BME280;8720;48.488;9.202;2023-06-14T07:42:48;96692.31;;;40.98;13.05
17209;BME280;8720;48.488;9.202;2023-06-14T07:45:16;96681.09;;;41.11;12.98
17209;BME280;8720;48.488;9.202;2023-06-14T07:47:44;96685.19;;;41.20;12.96
17209;BME280;8720;48.488;9.202;2023-06-14T07:50:11;96690.25;;;41.23;12.61
17209;BME280;8720;48.488;9.202;2023-06-14T07:52:41;96686.16;;;41.25;12.38
17209;BME280;8720;48.488;9.202;2023-06-14T07:55:08;96686.09;;;41.14;12.41
17209;BME280;8720;48.488;9.202;2023-06-14T07:57:36;96692.88;;;40.88;12.79
17209;BME280;8720;48.488;9.202;2023-06-14T08:00:05;96684.16;;;40.73;12.95
17209;BME280;8720;48.488;9.202;2023-06-14T08:02:38;96691.00;;;40.52;13.20
17209;BME280;8720;48.488;9.202;2023-06-14T08:05:06;96689.66;;;40.43;13.12
17209;BME280;8720;48.488;9.202;2023-06-14T08:07:34;96691.44;;;40.38;13.14
17209;BME280;8720;48.488;9.202;2023-06-14T08:10:03;96699.50;;;40.15;13.37
17209;BME280;8720;48.488;9.202;2023-06-14T08:12:30;96688.31;;;39.73;13.50
17209;BME280;8720;48.488;9.202;2023-06-14T08:14:58;96692.38;;;39.22;13.78
17209;BME280;8720;48.488;9.202;2023-06-14T08:17:25;96691.06;;;38.55;14.23
17209;BME280;8720;48.488;9.202;2023-06-14T08:19:52;96683.69;;;38.11;14.57
17209;BME280;8720;48.488;9.202;2023-06-14T08:22:23;96699.75;;;37.69;14.63
17209;BME280;8720;48.488;9.202;2023-06-14T08:24:51;96688.25;;;37.27;15.01
17209;BME280;8720;48.488;9.202;2023-06-14T08:27:21;96693.91;;;37.00;15.11
17209;BME280;8720;48.488;9.202;2023-06-14T08:29:49;96699.09;;;36.82;15.07
17209;BME280;8720;48.488;9.202;2023-06-14T08:32:16;96695.72;;;36.60;15.41
17209;BME280;8720;48.488;9.202;2023-06-14T08:34:44;96698.91;;;36.29;15.70
17209;BME280;8720;48.488;9.202;2023-06-14T08:37:11;96692.91;;;35.93;15.58
17209;BME280;8720;48.488;9.202;2023-06-14T08:39:38;96700.91;;;35.67;15.62
17209;BME280;8720;48.488;9.202;2023-06-14T08:42:09;96702.50;;;35.34;16.02
17209;BME280;8720;48.488;9.202;2023-06-14T08:44:38;96688.94;;;34.92;16.66
17209;BME280;8720;48.488;9.202;2023-06-14T08:47:07;96697.69;;;34.66;16.69
17209;BME280;8720;48.488;9.202;2023-06-14T08:49:37;96697.63;;;34.45;16.76
17209;BME280;8720;48.488;9.202;2023-06-14T08:52:09;96700.72;;;34.06;17.16
17209;BME280;8720;48.488;9.202;2023-06-14T08:54:40;96701.84;;;33.82;17.37
17209;BME280;8720;48.488;9.202;2023-06-14T08:57:11;96694.91;;;33.65;17.24
17209;BME280;8720;48.488;9.202;2023-06-14T08:59:47;96705.78;;;33.51;17.46
17209;BME280;8720;48.488;9.202;2023-06-14T09:02:18;96702.53;;;33.33;17.67
17209;BME280;8720;48.488;9.202;2023-06-14T09:04:48;96687.47;;;32.93;18.01
17209;BME280;8720;48.488;9.202;2023-06-14T09:07:16;96703.19;;;32.75;18.00
17209;BME280;8720;48.488;9.202;2023-06-14T09:09:44;96699.84;;;32.50;18.09
17209;BME280;8720;48.488;9.202;2023-06-14T09:12:11;96695.28;;;32.20;18.48
17209;BME280;8720;48.488;9.202;2023-06-14T09:14:38;96697.78;;;31.91;18.69
17209;BME280;8720;48.488;9.202;2023-06-14T09:17:13;96697.13;;;31.73;19.05
17209;BME280;8720;48.488;9.202;2023-06-14T09:19:41;96698.56;;;31.53;19.13
17209;BME280;8720;48.488;9.202;2023-06-14T09:22:08;96708.41;;;31.29;19.25
17209;BME280;8720;48.488;9.202;2023-06-14T09:24:37;96697.78;;;30.96;19.28
17209;BME280;8720;48.488;9.202;2023-06-14T09:27:06;96698.78;;;30.71;19.38
17209;BME280;8720;48.488;9.202;2023-06-14T09:29:33;96687.13;;;30.46;19.59
17209;BME280;8720;48.488;9.202;2023-06-14T09:32:02;96699.59;;;30.31;20.07
17209;BME280;8720;48.488;9.202;2023-06-14T09:34:30;96696.97;;;30.13;20.16
17209;BME280;8720;48.488;9.202;2023-06-14T09:36:58;96699.63;;;29.97;20.52
17209;BME280;8720;48.488;9.202;2023-06-14T09:39:25;96698.44;;;29.92;20.30
17209;BME280;8720;48.488;9.202;2023-06-14T09:41:53;96703.31;;;29.88;20.44
17209;BME280;8720;48.488;9.202;2023-06-14T09:44:21;96705.66;;;29.83;20.15
17209;BME280;8720;48.488;9.202;2023-06-14T09:46:51;96699.72;;;29.80;20.19
17209;BME280;8720;48.488;9.202;2023-06-14T09:49:19;96699.03;;;29.78;20.42
17209;BME280;8720;48.488;9.202;2023-06-14T09:51:51;96713.72;;;29.75;19.96
17209;BME280;8720;48.488;9.202;2023-06-14T09:54:22;96709.66;;;29.71;20.71
17209;BME280;8720;48.488;9.202;2023-06-14T09:56:52;96703.66;;;29.59;20.52
17209;BME280;8720;48.488;9.202;2023-06-14T09:59:26;96706.66;;;29.56;20.55
17209;BME280;8720;48.488;9.202;2023-06-14T10:01:58;96698.69;;;29.47;20.27
17209;BME280;8720;48.488;9.202;2023-06-14T10:04:30;96690.72;;;29.37;19.99
17209;BME280;8720;48.488;9.202;2023-06-14T10:07:01;96675.31;;;29.22;20.50
17209;BME280;8720;48.488;9.202;2023-06-14T10:09:30;96694.72;;;29.25;20.45
17209;BME280;8720;48.488;9.202;2023-06-14T10:11:58;96691.34;;;29.23;20.34
17209;BME280;8720;48.488;9.202;2023-06-14T10:14:27;96687.78;;;29.23;20.48
17209;BME280;8720;48.488;9.202;2023-06-14T10:17:04;96683.91;;;29.17;20.48
17209;BME280;8720;48.488;9.202;2023-06-14T10:19:41;96704.50;;;29.26;20.11
17209;BME280;8720;48.488;9.202;2023-06-14T10:22:19;96691.66;;;29.20;20.49
17209;BME280;8720;48.488;9.202;2023-06-14T10:24:51;96689.13;;;29.19;20.53
17209;BME280;8720;48.488;9.202;2023-06-14T10:27:18;96698.34;;;29.16;20.54
17209;BME280;8720;48.488;9.202;2023-06-14T10:30:09;96692.56;;;29.11;20.94
17209;BME280;8720;48.488;9.202;2023-06-14T10:33:06;96693.03;;;29.07;20.84
17209;BME280;8720;48.488;9.202;2023-06-14T10:35:34;96684.28;;;29.05;20.80
17209;BME280;8720;48.488;9.202;2023-06-14T10:38:11;96688.34;;;29.09;20.78
17209;BME280;8720;48.488;9.202;2023-06-14T10:40:39;96693.97;;;29.15;20.89
17209;BME280;8720;48.488;9.202;2023-06-14T10:43:22;96700.38;;;29.14;20.55
17209;BME280;8720;48.488;9.202;2023-06-14T10:46:14;96689.41;;;29.16;21.02
17209;BME280;8720;48.488;9.202;2023-06-14T10:48:42;96679.66;;;29.15;20.76
17209;BME280;8720;48.488;9.202;2023-06-14T10:51:17;96695.56;;;29.26;20.64
17209;BME280;8720;48.488;9.202;2023-06-14T10:53:48;96687.09;;;29.21;20.80
17209;BME280;8720;48.488;9.202;2023-06-14T10:56:30;96685.03;;;29.15;20.79
17209;BME280;8720;48.488;9.202;2023-06-14T10:58:58;96682.66;;;29.12;20.80
17209;BME280;8720;48.488;9.202;2023-06-14T11:01:36;96686.09;;;29.04;20.55
17209;BME280;8720;48.488;9.202;2023-06-14T11:04:09;96680.88;;;29.03;20.76
17209;BME280;8720;48.488;9.202;2023-06-14T11:06:47;96692.88;;;29.08;20.82
17209;BME280;8720;48.488;9.202;2023-06-14T11:09:50;96690.69;;;29.04;20.96
17209;BME280;8720;48.488;9.202;2023-06-14T11:12:23;96676.19;;;29.05;20.54
17209;BME280;8720;48.488;9.202;2023-06-14T11:14:52;96684.19;;;29.14;20.50
17209;BME280;8720;48.488;9.202;2023-06-14T11:17:20;96679.88;;;29.21;20.61
17209;BME280;8720;48.488;9.202;2023-06-14T11:19:47;96677.38;;;29.28;21.06
17209;BME280;8720;48.488;9.202;2023-06-14T11:22:14;96680.44;;;29.33;20.74
17209;BME280;8720;48.488;9.202;2023-06-14T11:24:44;96682.66;;;29.37;21.33
17209;BME280;8720;48.488;9.202;2023-06-14T11:27:12;96680.81;;;29.38;21.11
17209;BME280;8720;48.488;9.202;2023-06-14T11:29:48;96680.97;;;29.36;21.13
17209;BME280;8720;48.488;9.202;2023-06-14T11:32:16;96683.50;;;29.38;20.77
17209;BME280;8720;48.488;9.202;2023-06-14T11:34:46;96684.53;;;29.37;20.13
17209;BME280;8720;48.488;9.202;2023-06-14T11:37:13;96679.75;;;29.31;20.85
17209;BME280;8720;48.488;9.202;2023-06-14T11:39:45;96686.53;;;29.35;20.40
17209;BME280;8720;48.488;9.202;2023-06-14T11:42:15;96675.75;;;29.35;20.13
17209;BME280;8720;48.488;9.202;2023-06-14T11:44:45;96683.34;;;29.39;20.31
17209;BME280;8720;48.488;9.202;2023-06-14T11:47:13;96675.41;;;29.38;20.18
17209;BME280;8720;48.488;9.202;2023-06-14T11:49:40;96668.34;;;29.37;20.69
17209;BME280;8720;48.488;9.202;2023-06-14T11:52:08;96672.38;;;29.41;21.00
17209;BME280;8720;48.488;9.202;2023-06-14T11:54:35;96667.00;;;29.41;21.12
17209;BME280;8720;48.488;9.202;2023-06-14T11:57:06;96667.38;;;29.46;20.71
17209;BME280;8720;48.488;9.202;2023-06-14T11:59:38;96680.84;;;29.46;20.71
17209;BME280;8720;48.488;9.202;2023-06-14T12:02:07;96677.09;;;29.39;20.63
17209;BME280;8720;48.488;9.202;2023-06-14T12:04:34;96675.38;;;29.30;20.84
17209;BME280;8720;48.488;9.202;2023-06-14T12:07:09;96672.09;;;29.18;20.72
17209;BME280;8720;48.488;9.202;2023-06-14T12:09:38;96664.09;;;29.09;20.88
17209;BME280;8720;48.488;9.202;2023-06-14T12:12:08;96666.25;;;29.05;21.09
17209;BME280;8720;48.488;9.202;2023-06-14T12:14:36;96674.88;;;29.09;20.53
17209;BME280;8720;48.488;9.202;2023-06-14T12:17:05;96673.50;;;29.05;20.72
17209;BME280;8720;48.488;9.202;2023-06-14T12:19:41;96666.09;;;29.07;20.74
17209;BME280;8720;48.488;9.202;2023-06-14T12:22:10;96671.19;;;29.10;20.83
17209;BME280;8720;48.488;9.202;2023-06-14T12:24:38;96665.56;;;29.03;20.60
17209;BME280;8720;48.488;9.202;2023-06-14T12:27:08;96664.03;;;29.01;20.71
17209;BME280;8720;48.488;9.202;2023-06-14T12:29:37;96661.50;;;28.99;20.36
17209;BME280;8720;48.488;9.202;2023-06-14T12:32:06;96660.03;;;29.05;20.61
17209;BME280;8720;48.488;9.202;2023-06-14T12:34:33;96654.63;;;29.05;20.68
17209;BME280;8720;48.488;9.202;2023-06-14T12:37:01;96655.16;;;29.08;20.81
17209;BME280;8720;48.488;9.202;2023-06-14T12:39:30;96665.63;;;29.11;20.91
17209;BME280;8720;48.488;9.202;2023-06-14T12:41:58;96670.88;;;29.13;20.52
17209;BME280;8720;48.488;9.202;2023-06-14T12:44:27;96664.78;;;29.11;20.68
17209;BME280;8720;48.488;9.202;2023-06-14T12:46:55;96663.09;;;29.10;20.99
17209;BME280;8720;48.488;9.202;2023-06-14T12:49:22;96663.91;;;29.10;20.86
17209;BME280;8720;48.488;9.202;2023-06-14T12:51:49;96672.16;;;29.09;21.03
17209;BME280;8720;48.488;9.202;2023-06-14T12:54:17;96652.63;;;29.07;21.09
17209;BME280;8720;48.488;9.202;2023-06-14T12:56:44;96671.94;;;29.20;21.46
17209;BME280;8720;48.488;9.202;2023-06-14T12:59:11;96659.13;;;29.22;21.23
17209;BME280;8720;48.488;9.202;2023-06-14T13:01:40;96662.09;;;29.36;21.20
17209;BME280;8720;48.488;9.202;2023-06-14T13:04:07;96671.56;;;29.40;20.87
17209;BME280;8720;48.488;9.202;2023-06-14T13:06:36;96673.91;;;29.43;20.71
17209;BME280;8720;48.488;9.202;2023-06-14T13:09:03;96668.53;;;29.43;20.90
17209;BME280;8720;48.488;9.202;2023-06-14T13:11:31;96668.69;;;29.42;20.63
17209;BME280;8720;48.488;9.202;2023-06-14T13:13:58;96673.72;;;29.37;20.88
17209;BME280;8720;48.488;9.202;2023-06-14T13:16:26;96674.38;;;29.39;20.92
17209;BME280;8720;48.488;9.202;2023-06-14T13:18:54;96660.56;;;29.34;20.83
17209;BME280;8720;48.488;9.202;2023-06-14T13:21:22;96665.09;;;29.33;21.07
17209;BME280;8720;48.488;9.202;2023-06-14T13:23:49;96658.88;;;29.33;21.43
17209;BME280;8720;48.488;9.202;2023-06-14T13:26:16;96661.59;;;29.33;20.93